sensor_id;sensor_type;location;lat;lon;timestamp;P1;durP1;ratioP1;P2;durP2;ratioP2
6840;SDS011;3458;53.678;14.080;2024-01-30T00:01:19;7.73;;;4.50;;
6840;SDS011;3458;53.678;14.080;2024-01-30T00:03:44;6.37;;;3.70;;
6840;SDS011;3458;53.678;14.080;2024-01-30T00:06:11;5.50;;;4.00;;
6840;SDS011;3458;53.678;14.080;2024-01-30T00:08:37;11.07;;;4.43;;
6840;SDS011;3458;53.678;14.080;2024-01-30T00:11:02;5.57;;;3.80;;
6840;SDS011;3458;53.678;14.080;2024-01-30T00:13:28;6.93;;;4.00;;
6840;SDS011;3458;53.678;14.080;2024-01-30T00:15:53;6.17;;;4.17;;
6840;SDS011;3458;53.678;14.080;2024-01-30T00:18:19;5.60;;;3.63;;
6840;SDS011;3458;53.678;14.080;2024-01-30T00:20:44;10.10;;;5.03;;
6840;SDS011;3458;53.678;14.080;2024-01-30T00:23:10;13.23;;;4.80;;
6840;SDS011;3458;53.678;14.080;2024-01-30T00:25:36;10.63;;;5.50;;
6840;SDS011;3458;53.678;14.080;2024-01-30T00:28:01;7.73;;;5.00;;
6840;SDS011;3458;53.678;14.080;2024-01-30T00:30:27;9.67;;;4.17;;
6840;SDS011;3458;53.678;14.080;2024-01-30T00:32:53;10.80;;;4.87;;
6840;SDS011;3458;53.678;14.080;2024-01-30T00:35:18;7.17;;;4.57;;
6840;SDS011;3458;53.678;14.080;2024-01-30T00:37:44;11.20;;;4.93;;
6840;SDS011;3458;53.678;14.080;2024-01-30T00:40:09;8.40;;;4.20;;
6840;SDS011;3458;53.678;14.080;2024-01-30T00:42:40;9.27;;;5.13;;
6840;SDS011;3458;53.678;14.080;2024-01-30T00:45:15;9.50;;;5.37;;
6840;SDS011;3458;53.678;14.080;2024-01-30T00:47:41;9.60;;;6.00;;
6840;SDS011;3458;53.678;14.080;2024-01-30T00:50:07;14.03;;;5.13;;
6840;SDS011;3458;53.678;14.080;2024-01-30T00:52:32;9.10;;;4.57;;
6840;SDS011;3458;53.678;14.080;2024-01-30T00:54:58;9.97;;;4.93;;
6840;SDS011;3458;53.678;14.080;2024-01-30T00:57:24;8.27;;;4.87;;
6840;SDS011;3458;53.678;14.080;2024-01-30T00:59:50;9.30;;;5.10;;
6840;SDS011;3458;53.678;14.080;2024-01-30T01:02:15;9.07;;;4.43;;
6840;SDS011;3458;53.678;14.080;2024-01-30T01:04:42;7.37;;;4.30;;
6840;SDS011;3458;53.678;14.080;2024-01-30T01:07:09;5.23;;;3.50;;
6840;SDS011;3458;53.678;14.080;2024-01-30T01:09:35;7.37;;;4.23;;
6840;SDS011;3458;53.678;14.080;2024-01-30T01:12:01;8.03;;;3.93;;
6840;SDS011;3458;53.678;14.080;2024-01-30T01:14:27;9.67;;;4.57;;
6840;SDS011;3458;53.678;14.080;2024-01-30T01:16:52;10.43;;;5.03;;
6840;SDS011;3458;53.678;14.080;2024-01-30T01:19:18;13.63;;;4.23;;
6840;SDS011;3458;53.678;14.080;2024-01-30T01:21:43;8.80;;;4.20;;
6840;SDS011;3458;53.678;14.080;2024-01-30T01:24:09;11.17;;;4.33;;
6840;SDS011;3458;53.678;14.080;2024-01-30T01:26:34;10.23;;;4.80;;
6840;SDS011;3458;53.678;14.080;2024-01-30T01:29:00;8.90;;;5.07;;
6840;SDS011;3458;53.678;14.080;2024-01-30T01:31:25;5.83;;;4.17;;
6840;SDS011;3458;53.678;14.080;2024-01-30T01:33:54;8.33;;;4.47;;
6840;SDS011;3458;53.678;14.080;2024-01-30T01:36:20;8.80;;;4.23;;
6840;SDS011;3458;53.678;14.080;2024-01-30T01:38:45;9.30;;;4.67;;
6840;SDS011;3458;53.678;14.080;2024-01-30T01:41:11;12.03;;;5.30;;
6840;SDS011;3458;53.678;14.080;2024-01-30T01:43:36;10.60;;;5.00;;
6840;SDS011;3458;53.678;14.080;2024-01-30T01:46:04;9.43;;;5.20;;
6840;SDS011;3458;53.678;14.080;2024-01-30T01:48:30;6.13;;;4.00;;
6840;SDS011;3458;53.678;14.080;2024-01-30T01:50:55;10.13;;;5.50;;
6840;SDS011;3458;53.678;14.080;2024-01-30T01:53:21;10.13;;;5.20;;
6840;SDS011;3458;53.678;14.080;2024-01-30T01:55:47;5.50;;;3.93;;
6840;SDS011;3458;53.678;14.080;2024-01-30T01:58:13;8.57;;;4.20;;
6840;SDS011;3458;53.678;14.080;2024-01-30T02:00:39;9.43;;;5.20;;
6840;SDS011;3458;53.678;14.080;2024-01-30T02:03:06;9.10;;;5.33;;
6840;SDS011;3458;53.678;14.080;2024-01-30T02:05:34;8.37;;;4.67;;
6840;SDS011;3458;53.678;14.080;2024-01-30T02:08:01;8.90;;;5.67;;
6840;SDS011;3458;53.678;14.080;2024-01-30T02:10:26;7.80;;;4.33;;
6840;SDS011;3458;53.678;14.080;2024-01-30T02:12:52;9.90;;;5.50;;
6840;SDS011;3458;53.678;14.080;2024-01-30T02:15:18;11.50;;;5.23;;
6840;SDS011;3458;53.678;14.080;2024-01-30T02:17:43;9.30;;;4.73;;
6840;SDS011;3458;53.678;14.080;2024-01-30T02:20:09;10.13;;;4.70;;
6840;SDS011;3458;53.678;14.080;2024-01-30T02:22:35;9.03;;;4.83;;
6840;SDS011;3458;53.678;14.080;2024-01-30T02:25:02;12.73;;;6.10;;
6840;SDS011;3458;53.678;14.080;2024-01-30T02:27:28;11.07;;;5.20;;
6840;SDS011;3458;53.678;14.080;2024-01-30T02:29:53;10.83;;;5.50;;
6840;SDS011;3458;53.678;14.080;2024-01-30T02:32:19;11.93;;;5.73;;
6840;SDS011;3458;53.678;14.080;2024-01-30T02:34:44;11.90;;;5.20;;
6840;SDS011;3458;53.678;14.080;2024-01-30T02:37:10;7.27;;;4.93;;
6840;SDS011;3458;53.678;14.080;2024-01-30T02:39:35;12.80;;;5.30;;
6840;SDS011;3458;53.678;14.080;2024-01-30T02:42:01;13.63;;;5.70;;
6840;SDS011;3458;53.678;14.080;2024-01-30T02:44:26;9.40;;;5.40;;
6840;SDS011;3458;53.678;14.080;2024-01-30T02:46:52;7.50;;;5.03;;
6840;SDS011;3458;53.678;14.080;2024-01-30T02:49:19;7.67;;;5.07;;
6840;SDS011;3458;53.678;14.080;2024-01-30T02:51:44;10.40;;;5.43;;
6840;SDS011;3458;53.678;14.080;2024-01-30T02:54:10;8.63;;;5.17;;
6840;SDS011;3458;53.678;14.080;2024-01-30T02:56:35;11.27;;;4.90;;
6840;SDS011;3458;53.678;14.080;2024-01-30T02:59:01;9.13;;;4.87;;
6840;SDS011;3458;53.678;14.080;2024-01-30T03:01:26;8.60;;;4.90;;
6840;SDS011;3458;53.678;14.080;2024-01-30T03:03:52;8.27;;;5.63;;
6840;SDS011;3458;53.678;14.080;2024-01-30T03:06:17;12.13;;;5.27;;
6840;SDS011;3458;53.678;14.080;2024-01-30T03:08:45;13.37;;;5.17;;
6840;SDS011;3458;53.678;14.080;2024-01-30T03:11:10;15.63;;;5.97;;
6840;SDS011;3458;53.678;14.080;2024-01-30T03:13:36;10.20;;;5.27;;
6840;SDS011;3458;53.678;14.080;2024-01-30T03:16:01;8.40;;;4.67;;
6840;SDS011;3458;53.678;14.080;2024-01-30T03:18:27;10.60;;;5.23;;
6840;SDS011;3458;53.678;14.080;2024-01-30T03:20:53;7.07;;;4.93;;
6840;SDS011;3458;53.678;14.080;2024-01-30T03:23:18;11.60;;;5.30;;
6840;SDS011;3458;53.678;14.080;2024-01-30T03:25:44;12.83;;;6.00;;
6840;SDS011;3458;53.678;14.080;2024-01-30T03:28:09;12.10;;;7.80;;
6840;SDS011;3458;53.678;14.080;2024-01-30T03:30:35;14.00;;;5.37;;
6840;SDS011;3458;53.678;14.080;2024-01-30T03:33:00;10.43;;;5.30;;
6840;SDS011;3458;53.678;14.080;2024-01-30T03:35:26;10.73;;;5.60;;
6840;SDS011;3458;53.678;14.080;2024-01-30T03:37:51;11.30;;;5.90;;
6840;SDS011;3458;53.678;14.080;2024-01-30T03:40:17;9.73;;;5.47;;
6840;SDS011;3458;53.678;14.080;2024-01-30T03:42:42;9.33;;;6.23;;
6840;SDS011;3458;53.678;14.080;2024-01-30T03:45:08;11.57;;;5.97;;
6840;SDS011;3458;53.678;14.080;2024-01-30T03:47:33;10.03;;;6.03;;
6840;SDS011;3458;53.678;14.080;2024-01-30T03:49:59;12.63;;;5.63;;
6840;SDS011;3458;53.678;14.080;2024-01-30T03:52:24;12.53;;;5.57;;
6840;SDS011;3458;53.678;14.080;2024-01-30T03:54:50;12.33;;;6.20;;
6840;SDS011;3458;53.678;14.080;2024-01-30T03:57:15;11.83;;;5.30;;
6840;SDS011;3458;53.678;14.080;2024-01-30T03:59:42;13.60;;;6.83;;
6840;SDS011;3458;53.678;14.080;2024-01-30T04:02:07;11.60;;;5.70;;
6840;SDS011;3458;53.678;14.080;2024-01-30T04:04:33;12.00;;;5.70;;
6840;SDS011;3458;53.678;14.080;2024-01-30T04:06:58;13.30;;;7.17;;
6840;SDS011;3458;53.678;14.080;2024-01-30T04:09:24;11.07;;;5.60;;
6840;SDS011;3458;53.678;14.080;2024-01-30T04:11:51;9.50;;;5.40;;
6840;SDS011;3458;53.678;14.080;2024-01-30T04:14:16;13.27;;;5.70;;
6840;SDS011;3458;53.678;14.080;2024-01-30T04:16:42;9.80;;;5.97;;
6840;SDS011;3458;53.678;14.080;2024-01-30T04:19:07;8.93;;;5.03;;
6840;SDS011;3458;53.678;14.080;2024-01-30T04:21:33;12.70;;;5.70;;
6840;SDS011;3458;53.678;14.080;2024-01-30T04:23:58;10.57;;;6.07;;
6840;SDS011;3458;53.678;14.080;2024-01-30T04:26:24;14.23;;;6.27;;
6840;SDS011;3458;53.678;14.080;2024-01-30T04:28:49;11.73;;;6.07;;
6840;SDS011;3458;53.678;14.080;2024-01-30T04:31:15;10.50;;;5.97;;
6840;SDS011;3458;53.678;14.080;2024-01-30T04:33:40;9.40;;;6.33;;
6840;SDS011;3458;53.678;14.080;2024-01-30T04:36:08;10.77;;;5.90;;
6840;SDS011;3458;53.678;14.080;2024-01-30T04:38:35;11.07;;;6.33;;
6840;SDS011;3458;53.678;14.080;2024-01-30T04:41:00;10.30;;;5.93;;
6840;SDS011;3458;53.678;14.080;2024-01-30T04:43:26;12.10;;;6.30;;
6840;SDS011;3458;53.678;14.080;2024-01-30T04:45:52;8.87;;;6.10;;
6840;SDS011;3458;53.678;14.080;2024-01-30T04:48:17;11.20;;;5.53;;
6840;SDS011;3458;53.678;14.080;2024-01-30T04:50:43;12.83;;;6.20;;
6840;SDS011;3458;53.678;14.080;2024-01-30T04:53:08;13.83;;;7.07;;
6840;SDS011;3458;53.678;14.080;2024-01-30T04:55:34;12.33;;;6.33;;
6840;SDS011;3458;53.678;14.080;2024-01-30T04:58:01;12.30;;;6.00;;
6840;SDS011;3458;53.678;14.080;2024-01-30T05:00:26;11.73;;;6.97;;
6840;SDS011;3458;53.678;14.080;2024-01-30T05:02:52;11.50;;;6.87;;
6840;SDS011;3458;53.678;14.080;2024-01-30T05:05:19;17.03;;;6.87;;
6840;SDS011;3458;53.678;14.080;2024-01-30T05:07:45;12.57;;;6.77;;
6840;SDS011;3458;53.678;14.080;2024-01-30T05:10:11;11.93;;;6.27;;
6840;SDS011;3458;53.678;14.080;2024-01-30T05:12:36;15.87;;;8.00;;
6840;SDS011;3458;53.678;14.080;2024-01-30T05:15:04;9.50;;;5.80;;
6840;SDS011;3458;53.678;14.080;2024-01-30T05:17:29;12.57;;;6.00;;
6840;SDS011;3458;53.678;14.080;2024-01-30T05:19:55;17.87;;;7.00;;
6840;SDS011;3458;53.678;14.080;2024-01-30T05:22:20;17.50;;;7.50;;
6840;SDS011;3458;53.678;14.080;2024-01-30T05:24:46;12.13;;;6.93;;
6840;SDS011;3458;53.678;14.080;2024-01-30T05:27:11;12.13;;;6.17;;
6840;SDS011;3458;53.678;14.080;2024-01-30T05:29:38;11.97;;;6.53;;
6840;SDS011;3458;53.678;14.080;2024-01-30T05:32:05;15.53;;;6.63;;
6840;SDS011;3458;53.678;14.080;2024-01-30T05:34:31;11.00;;;6.77;;
6840;SDS011;3458;53.678;14.080;2024-01-30T05:36:56;10.53;;;6.40;;
6840;SDS011;3458;53.678;14.080;2024-01-30T05:39:22;11.60;;;6.50;;
6840;SDS011;3458;53.678;14.080;2024-01-30T05:41:47;12.17;;;6.57;;
6840;SDS011;3458;53.678;14.080;2024-01-30T05:44:13;20.50;;;6.73;;
6840;SDS011;3458;53.678;14.080;2024-01-30T05:46:38;12.00;;;6.90;;
6840;SDS011;3458;53.678;14.080;2024-01-30T05:49:04;11.53;;;6.33;;
6840;SDS011;3458;53.678;14.080;2024-01-30T05:51:29;15.03;;;6.50;;
6840;SDS011;3458;53.678;14.080;2024-01-30T05:53:55;12.67;;;6.70;;
6840;SDS011;3458;53.678;14.080;2024-01-30T05:56:20;15.87;;;6.50;;
6840;SDS011;3458;53.678;14.080;2024-01-30T05:58:46;18.83;;;8.47;;
6840;SDS011;3458;53.678;14.080;2024-01-30T06:01:11;15.57;;;7.80;;
6840;SDS011;3458;53.678;14.080;2024-01-30T06:03:37;17.90;;;7.40;;
6840;SDS011;3458;53.678;14.080;2024-01-30T06:06:03;13.60;;;7.33;;
6840;SDS011;3458;53.678;14.080;2024-01-30T06:08:29;12.90;;;6.70;;
6840;SDS011;3458;53.678;14.080;2024-01-30T06:10:54;18.20;;;6.77;;
6840;SDS011;3458;53.678;14.080;2024-01-30T06:13:20;12.23;;;7.17;;
6840;SDS011;3458;53.678;14.080;2024-01-30T06:15:45;15.90;;;7.83;;
6840;SDS011;3458;53.678;14.080;2024-01-30T06:18:11;11.20;;;6.50;;
6840;SDS011;3458;53.678;14.080;2024-01-30T06:20:36;11.67;;;7.17;;
6840;SDS011;3458;53.678;14.080;2024-01-30T06:23:02;12.07;;;6.67;;
6840;SDS011;3458;53.678;14.080;2024-01-30T06:25:28;14.60;;;6.30;;
6840;SDS011;3458;53.678;14.080;2024-01-30T06:27:53;15.40;;;7.97;;
6840;SDS011;3458;53.678;14.080;2024-01-30T06:30:19;12.27;;;7.23;;
6840;SDS011;3458;53.678;14.080;2024-01-30T06:32:44;21.70;;;7.40;;
6840;SDS011;3458;53.678;14.080;2024-01-30T06:35:11;12.93;;;7.97;;
6840;SDS011;3458;53.678;14.080;2024-01-30T06:37:37;12.10;;;6.90;;
6840;SDS011;3458;53.678;14.080;2024-01-30T06:40:03;14.97;;;6.80;;
6840;SDS011;3458;53.678;14.080;2024-01-30T06:42:30;16.37;;;7.97;;
6840;SDS011;3458;53.678;14.080;2024-01-30T06:44:55;17.23;;;6.23;;
6840;SDS011;3458;53.678;14.080;2024-01-30T06:47:21;11.97;;;6.57;;
6840;SDS011;3458;53.678;14.080;2024-01-30T06:49:46;18.80;;;6.63;;
6840;SDS011;3458;53.678;14.080;2024-01-30T06:52:12;15.83;;;7.57;;
6840;SDS011;3458;53.678;14.080;2024-01-30T06:54:37;13.93;;;6.20;;
6840;SDS011;3458;53.678;14.080;2024-01-30T06:57:04;15.70;;;7.23;;
6840;SDS011;3458;53.678;14.080;2024-01-30T06:59:33;16.70;;;6.40;;
6840;SDS011;3458;53.678;14.080;2024-01-30T07:01:59;13.83;;;7.50;;
6840;SDS011;3458;53.678;14.080;2024-01-30T07:04:25;15.20;;;6.47;;
6840;SDS011;3458;53.678;14.080;2024-01-30T07:06:50;10.90;;;7.13;;
6840;SDS011;3458;53.678;14.080;2024-01-30T07:09:18;15.23;;;6.97;;
6840;SDS011;3458;53.678;14.080;2024-01-30T07:11:43;14.93;;;7.63;;
6840;SDS011;3458;53.678;14.080;2024-01-30T07:14:09;11.30;;;6.70;;
6840;SDS011;3458;53.678;14.080;2024-01-30T07:16:34;13.67;;;6.80;;
6840;SDS011;3458;53.678;14.080;2024-01-30T07:19:00;12.10;;;6.93;;
6840;SDS011;3458;53.678;14.080;2024-01-30T07:21:25;13.40;;;6.93;;
6840;SDS011;3458;53.678;14.080;2024-01-30T07:23:56;16.80;;;7.40;;
6840;SDS011;3458;53.678;14.080;2024-01-30T07:26:21;14.70;;;7.23;;
6840;SDS011;3458;53.678;14.080;2024-01-30T07:28:47;13.90;;;6.60;;
6840;SDS011;3458;53.678;14.080;2024-01-30T07:31:12;13.10;;;6.77;;
6840;SDS011;3458;53.678;14.080;2024-01-30T07:33:38;13.37;;;6.60;;
6840;SDS011;3458;53.678;14.080;2024-01-30T07:36:03;14.20;;;7.40;;
6840;SDS011;3458;53.678;14.080;2024-01-30T07:38:31;11.87;;;7.13;;
6840;SDS011;3458;53.678;14.080;2024-01-30T07:40:57;11.40;;;6.10;;
6840;SDS011;3458;53.678;14.080;2024-01-30T07:43:23;9.40;;;6.57;;
6840;SDS011;3458;53.678;14.080;2024-01-30T07:45:48;12.20;;;6.70;;
6840;SDS011;3458;53.678;14.080;2024-01-30T07:48:14;18.00;;;7.70;;
6840;SDS011;3458;53.678;14.080;2024-01-30T07:50:39;19.03;;;7.07;;
6840;SDS011;3458;53.678;14.080;2024-01-30T07:53:04;17.60;;;7.37;;
6840;SDS011;3458;53.678;14.080;2024-01-30T07:55:30;11.47;;;6.73;;
6840;SDS011;3458;53.678;14.080;2024-01-30T07:57:57;14.63;;;6.57;;
6840;SDS011;3458;53.678;14.080;2024-01-30T08:00:23;14.20;;;7.07;;
6840;SDS011;3458;53.678;14.080;2024-01-30T08:02:49;9.63;;;5.93;;
6840;SDS011;3458;53.678;14.080;2024-01-30T08:05:14;14.43;;;8.00;;
6840;SDS011;3458;53.678;14.080;2024-01-30T08:07:43;13.00;;;7.40;;
6840;SDS011;3458;53.678;14.080;2024-01-30T08:10:10;16.00;;;8.50;;
6840;SDS011;3458;53.678;14.080;2024-01-30T08:12:37;13.20;;;7.40;;
6840;SDS011;3458;53.678;14.080;2024-01-30T08:15:03;14.30;;;7.40;;
6840;SDS011;3458;53.678;14.080;2024-01-30T08:17:29;14.10;;;7.27;;
6840;SDS011;3458;53.678;14.080;2024-01-30T08:19:55;14.07;;;6.80;;
6840;SDS011;3458;53.678;14.080;2024-01-30T08:22:20;18.13;;;8.13;;
6840;SDS011;3458;53.678;14.080;2024-01-30T08:24:46;20.53;;;7.00;;
6840;SDS011;3458;53.678;14.080;2024-01-30T08:27:11;16.50;;;8.10;;
6840;SDS011;3458;53.678;14.080;2024-01-30T08:29:37;16.27;;;6.73;;
6840;SDS011;3458;53.678;14.080;2024-01-30T08:32:03;13.47;;;6.50;;
6840;SDS011;3458;53.678;14.080;2024-01-30T08:34:30;14.83;;;7.33;;
6840;SDS011;3458;53.678;14.080;2024-01-30T08:36:55;10.50;;;6.60;;
6840;SDS011;3458;53.678;14.080;2024-01-30T08:39:20;13.70;;;7.17;;
6840;SDS011;3458;53.678;14.080;2024-01-30T08:41:46;11.53;;;6.80;;
6840;SDS011;3458;53.678;14.080;2024-01-30T08:44:11;10.83;;;6.43;;
6840;SDS011;3458;53.678;14.080;2024-01-30T08:46:37;12.50;;;6.23;;
6840;SDS011;3458;53.678;14.080;2024-01-30T08:49:02;15.43;;;6.47;;
6840;SDS011;3458;53.678;14.080;2024-01-30T08:51:31;12.13;;;6.80;;
6840;SDS011;3458;53.678;14.080;2024-01-30T08:53:56;9.50;;;6.10;;
6840;SDS011;3458;53.678;14.080;2024-01-30T08:56:22;13.33;;;6.47;;
6840;SDS011;3458;53.678;14.080;2024-01-30T08:58:47;12.30;;;7.30;;
6840;SDS011;3458;53.678;14.080;2024-01-30T09:01:13;12.43;;;6.70;;
6840;SDS011;3458;53.678;14.080;2024-01-30T09:03:39;14.77;;;6.90;;
6840;SDS011;3458;53.678;14.080;2024-01-30T09:06:09;11.40;;;6.80;;
6840;SDS011;3458;53.678;14.080;2024-01-30T09:08:35;11.93;;;6.70;;
6840;SDS011;3458;53.678;14.080;2024-01-30T09:11:02;12.60;;;6.50;;
6840;SDS011;3458;53.678;14.080;2024-01-30T09:13:37;16.23;;;7.20;;
6840;SDS011;3458;53.678;14.080;2024-01-30T09:16:03;10.73;;;6.57;;
6840;SDS011;3458;53.678;14.080;2024-01-30T09:18:29;15.73;;;6.80;;
6840;SDS011;3458;53.678;14.080;2024-01-30T09:21:01;11.60;;;6.60;;
6840;SDS011;3458;53.678;14.080;2024-01-30T09:23:27;11.97;;;7.10;;
6840;SDS011;3458;53.678;14.080;2024-01-30T09:25:53;12.83;;;7.03;;
6840;SDS011;3458;53.678;14.080;2024-01-30T09:28:18;11.93;;;6.60;;
6840;SDS011;3458;53.678;14.080;2024-01-30T09:30:44;18.57;;;7.63;;
6840;SDS011;3458;53.678;14.080;2024-01-30T09:33:09;26.23;;;7.17;;
6840;SDS011;3458;53.678;14.080;2024-01-30T09:35:35;12.30;;;6.90;;
6840;SDS011;3458;53.678;14.080;2024-01-30T09:38:01;10.60;;;7.37;;
6840;SDS011;3458;53.678;14.080;2024-01-30T09:40:27;20.97;;;8.33;;
6840;SDS011;3458;53.678;14.080;2024-01-30T09:42:53;15.47;;;7.13;;
6840;SDS011;3458;53.678;14.080;2024-01-30T09:45:21;21.60;;;7.30;;
6840;SDS011;3458;53.678;14.080;2024-01-30T09:47:50;14.17;;;7.77;;
6840;SDS011;3458;53.678;14.080;2024-01-30T09:50:15;11.67;;;6.60;;
6840;SDS011;3458;53.678;14.080;2024-01-30T09:52:42;14.67;;;8.37;;
6840;SDS011;3458;53.678;14.080;2024-01-30T09:55:11;14.10;;;7.17;;
6840;SDS011;3458;53.678;14.080;2024-01-30T09:57:37;12.10;;;7.50;;
6840;SDS011;3458;53.678;14.080;2024-01-30T10:00:03;17.30;;;8.17;;
6840;SDS011;3458;53.678;14.080;2024-01-30T10:02:31;13.07;;;7.10;;
6840;SDS011;3458;53.678;14.080;2024-01-30T10:04:57;10.33;;;6.97;;
6840;SDS011;3458;53.678;14.080;2024-01-30T10:07:22;15.00;;;6.97;;
6840;SDS011;3458;53.678;14.080;2024-01-30T10:09:48;15.50;;;7.83;;
6840;SDS011;3458;53.678;14.080;2024-01-30T10:12:14;15.37;;;8.13;;
6840;SDS011;3458;53.678;14.080;2024-01-30T10:14:42;14.50;;;8.30;;
6840;SDS011;3458;53.678;14.080;2024-01-30T10:17:11;19.83;;;8.07;;
6840;SDS011;3458;53.678;14.080;2024-01-30T10:19:38;17.40;;;7.57;;
6840;SDS011;3458;53.678;14.080;2024-01-30T10:22:04;15.53;;;8.13;;
6840;SDS011;3458;53.678;14.080;2024-01-30T10:24:30;13.07;;;7.63;;
6840;SDS011;3458;53.678;14.080;2024-01-30T10:26:56;16.47;;;7.57;;
6840;SDS011;3458;53.678;14.080;2024-01-30T10:29:22;13.97;;;7.93;;
6840;SDS011;3458;53.678;14.080;2024-01-30T10:32:00;14.20;;;8.53;;
6840;SDS011;3458;53.678;14.080;2024-01-30T10:34:26;15.70;;;7.40;;
6840;SDS011;3458;53.678;14.080;2024-01-30T10:36:56;15.50;;;8.13;;
6840;SDS011;3458;53.678;14.080;2024-01-30T10:39:30;13.17;;;7.60;;
6840;SDS011;3458;53.678;14.080;2024-01-30T10:41:59;12.87;;;7.67;;
6840;SDS011;3458;53.678;14.080;2024-01-30T10:44:30;17.10;;;8.20;;
6840;SDS011;3458;53.678;14.080;2024-01-30T10:47:10;14.37;;;7.13;;
6840;SDS011;3458;53.678;14.080;2024-01-30T10:49:39;14.80;;;7.67;;
6840;SDS011;3458;53.678;14.080;2024-01-30T10:52:05;15.40;;;8.10;;
6840;SDS011;3458;53.678;14.080;2024-01-30T10:54:32;18.43;;;9.60;;
6840;SDS011;3458;53.678;14.080;2024-01-30T10:56:59;18.00;;;8.40;;
6840;SDS011;3458;53.678;14.080;2024-01-30T10:59:28;15.03;;;8.53;;
6840;SDS011;3458;53.678;14.080;2024-01-30T11:01:55;17.10;;;8.30;;
6840;SDS011;3458;53.678;14.080;2024-01-30T11:04:22;14.27;;;8.10;;
6840;SDS011;3458;53.678;14.080;2024-01-30T11:06:48;19.27;;;8.10;;
6840;SDS011;3458;53.678;14.080;2024-01-30T11:09:16;21.83;;;10.90;;
6840;SDS011;3458;53.678;14.080;2024-01-30T11:11:56;21.77;;;11.10;;
6840;SDS011;3458;53.678;14.080;2024-01-30T11:14:26;17.80;;;8.80;;
6840;SDS011;3458;53.678;14.080;2024-01-30T11:16:56;14.77;;;8.10;;
6840;SDS011;3458;53.678;14.080;2024-01-30T11:19:23;15.87;;;8.17;;
6840;SDS011;3458;53.678;14.080;2024-01-30T11:21:55;9.57;;;7.10;;
6840;SDS011;3458;53.678;14.080;2024-01-30T11:24:22;15.03;;;7.40;;
6840;SDS011;3458;53.678;14.080;2024-01-30T11:26:57;16.53;;;8.30;;
6840;SDS011;3458;53.678;14.080;2024-01-30T11:29:26;16.23;;;7.47;;
6840;SDS011;3458;53.678;14.080;2024-01-30T11:31:56;12.90;;;7.90;;
6840;SDS011;3458;53.678;14.080;2024-01-30T11:34:22;13.77;;;7.30;;
6840;SDS011;3458;53.678;14.080;2024-01-30T11:36:51;12.53;;;7.83;;
6840;SDS011;3458;53.678;14.080;2024-01-30T11:39:23;16.07;;;7.20;;
6840;SDS011;3458;53.678;14.080;2024-01-30T11:41:50;12.30;;;7.27;;
6840;SDS011;3458;53.678;14.080;2024-01-30T11:44:18;12.23;;;7.33;;
6840;SDS011;3458;53.678;14.080;2024-01-30T11:46:47;13.30;;;6.97;;
6840;SDS011;3458;53.678;14.080;2024-01-30T11:49:13;11.60;;;7.40;;
6840;SDS011;3458;53.678;14.080;2024-01-30T11:51:39;11.50;;;7.03;;
6840;SDS011;3458;53.678;14.080;2024-01-30T11:54:04;15.00;;;7.47;;
6840;SDS011;3458;53.678;14.080;2024-01-30T11:56:30;13.10;;;7.53;;
6840;SDS011;3458;53.678;14.080;2024-01-30T11:58:55;14.20;;;8.33;;
6840;SDS011;3458;53.678;14.080;2024-01-30T12:01:21;13.03;;;6.80;;
6840;SDS011;3458;53.678;14.080;2024-01-30T12:03:50;13.47;;;7.20;;
6840;SDS011;3458;53.678;14.080;2024-01-30T12:06:16;13.03;;;6.87;;
6840;SDS011;3458;53.678;14.080;2024-01-30T12:08:41;16.30;;;8.53;;
6840;SDS011;3458;53.678;14.080;2024-01-30T12:11:07;12.43;;;6.60;;
6840;SDS011;3458;53.678;14.080;2024-01-30T12:13:33;11.70;;;6.80;;
6840;SDS011;3458;53.678;14.080;2024-01-30T12:15:59;15.63;;;8.33;;
6840;SDS011;3458;53.678;14.080;2024-01-30T12:18:25;14.70;;;7.90;;
6840;SDS011;3458;53.678;14.080;2024-01-30T12:20:58;13.83;;;7.70;;
6840;SDS011;3458;53.678;14.080;2024-01-30T12:23:24;11.60;;;7.13;;
6840;SDS011;3458;53.678;14.080;2024-01-30T12:25:51;12.77;;;6.33;;
6840;SDS011;3458;53.678;14.080;2024-01-30T12:28:17;12.73;;;6.90;;
6840;SDS011;3458;53.678;14.080;2024-01-30T12:30:43;14.53;;;7.73;;
6840;SDS011;3458;53.678;14.080;2024-01-30T12:33:08;12.80;;;7.57;;
6840;SDS011;3458;53.678;14.080;2024-01-30T12:35:35;14.47;;;7.47;;
6840;SDS011;3458;53.678;14.080;2024-01-30T12:38:00;13.57;;;7.53;;
6840;SDS011;3458;53.678;14.080;2024-01-30T12:40:27;15.13;;;8.20;;
6840;SDS011;3458;53.678;14.080;2024-01-30T12:42:53;14.07;;;8.97;;
6840;SDS011;3458;53.678;14.080;2024-01-30T12:45:19;14.10;;;7.07;;
6840;SDS011;3458;53.678;14.080;2024-01-30T12:47:47;23.47;;;12.23;;
6840;SDS011;3458;53.678;14.080;2024-01-30T12:50:13;18.40;;;8.37;;
6840;SDS011;3458;53.678;14.080;2024-01-30T12:52:40;16.90;;;7.00;;
6840;SDS011;3458;53.678;14.080;2024-01-30T12:55:07;12.10;;;7.50;;
6840;SDS011;3458;53.678;14.080;2024-01-30T12:57:33;14.83;;;8.27;;
6840;SDS011;3458;53.678;14.080;2024-01-30T12:59:58;15.80;;;6.93;;
6840;SDS011;3458;53.678;14.080;2024-01-30T13:02:24;15.13;;;8.30;;
6840;SDS011;3458;53.678;14.080;2024-01-30T13:04:51;19.63;;;6.97;;
6840;SDS011;3458;53.678;14.080;2024-01-30T13:07:17;8.70;;;6.47;;
6840;SDS011;3458;53.678;14.080;2024-01-30T13:09:42;10.97;;;7.33;;
6840;SDS011;3458;53.678;14.080;2024-01-30T13:12:08;12.57;;;7.37;;
6840;SDS011;3458;53.678;14.080;2024-01-30T13:14:34;15.43;;;7.60;;
6840;SDS011;3458;53.678;14.080;2024-01-30T13:16:59;14.57;;;7.97;;
6840;SDS011;3458;53.678;14.080;2024-01-30T13:19:25;12.17;;;7.23;;
6840;SDS011;3458;53.678;14.080;2024-01-30T13:21:50;12.27;;;7.20;;
6840;SDS011;3458;53.678;14.080;2024-01-30T13:24:16;13.20;;;7.13;;
6840;SDS011;3458;53.678;14.080;2024-01-30T13:26:44;22.77;;;8.50;;
6840;SDS011;3458;53.678;14.080;2024-01-30T13:29:13;13.93;;;7.73;;
6840;SDS011;3458;53.678;14.080;2024-01-30T13:32:31;15.17;;;7.13;;
6840;SDS011;3458;53.678;14.080;2024-01-30T13:34:56;17.57;;;7.07;;
6840;SDS011;3458;53.678;14.080;2024-01-30T13:37:22;14.83;;;7.33;;
6840;SDS011;3458;53.678;14.080;2024-01-30T13:39:48;15.13;;;7.80;;
6840;SDS011;3458;53.678;14.080;2024-01-30T13:42:13;17.20;;;8.50;;
6840;SDS011;3458;53.678;14.080;2024-01-30T13:44:39;16.00;;;7.50;;
6840;SDS011;3458;53.678;14.080;2024-01-30T13:47:04;14.87;;;8.43;;
6840;SDS011;3458;53.678;14.080;2024-01-30T13:49:30;12.20;;;6.93;;
6840;SDS011;3458;53.678;14.080;2024-01-30T13:51:55;14.37;;;7.70;;
6840;SDS011;3458;53.678;14.080;2024-01-30T13:54:22;15.17;;;7.50;;
6840;SDS011;3458;53.678;14.080;2024-01-30T13:56:47;13.10;;;7.13;;
6840;SDS011;3458;53.678;14.080;2024-01-30T13:59:13;14.10;;;7.93;;
6840;SDS011;3458;53.678;14.080;2024-01-30T14:01:38;13.47;;;7.33;;
6840;SDS011;3458;53.678;14.080;2024-01-30T14:04:04;11.70;;;7.10;;
6840;SDS011;3458;53.678;14.080;2024-01-30T14:06:29;12.00;;;7.50;;
6840;SDS011;3458;53.678;14.080;2024-01-30T14:08:55;15.40;;;7.90;;
6840;SDS011;3458;53.678;14.080;2024-01-30T14:11:20;15.40;;;8.27;;
6840;SDS011;3458;53.678;14.080;2024-01-30T14:13:46;14.57;;;8.27;;
6840;SDS011;3458;53.678;14.080;2024-01-30T14:16:11;16.77;;;8.10;;
6840;SDS011;3458;53.678;14.080;2024-01-30T14:18:37;13.40;;;7.63;;
6840;SDS011;3458;53.678;14.080;2024-01-30T14:21:05;22.73;;;9.00;;
6840;SDS011;3458;53.678;14.080;2024-01-30T14:23:31;13.57;;;8.60;;
6840;SDS011;3458;53.678;14.080;2024-01-30T14:25:57;19.87;;;10.53;;
6840;SDS011;3458;53.678;14.080;2024-01-30T14:28:30;25.50;;;9.90;;
6840;SDS011;3458;53.678;14.080;2024-01-30T14:31:01;13.87;;;8.47;;
6840;SDS011;3458;53.678;14.080;2024-01-30T14:33:26;15.77;;;8.90;;
6840;SDS011;3458;53.678;14.080;2024-01-30T14:35:52;16.37;;;7.67;;
6840;SDS011;3458;53.678;14.080;2024-01-30T14:38:17;14.20;;;8.60;;
6840;SDS011;3458;53.678;14.080;2024-01-30T14:40:43;21.93;;;9.20;;
6840;SDS011;3458;53.678;14.080;2024-01-30T14:43:09;16.47;;;8.60;;
6840;SDS011;3458;53.678;14.080;2024-01-30T14:45:34;15.80;;;8.30;;